createdAt,value
2022-11-19T00:00:10.712Z,100064.45
2022-11-19T00:05:41.267Z,100066.64
2022-11-19T00:10:47.775Z,100071.83
2022-11-19T00:15:53.675Z,100073.80
2022-11-19T00:21:04.348Z,100078.11
2022-11-19T00:26:09.836Z,100081.05
2022-11-19T00:31:16.427Z,100081.73
2022-11-19T00:36:22.641Z,100084.41
2022-11-19T00:41:28.348Z,100090.34
2022-11-19T00:46:34.180Z,100091.77
2022-11-19T00:51:39.876Z,100087.65
2022-11-19T00:56:45.461Z,100083.33
2022-11-19T01:01:51.105Z,100083.42
2022-11-19T01:06:57.027Z,100092.21
2022-11-19T01:12:02.845Z,100102.29
2022-11-19T01:17:09.541Z,100102.80
2022-11-19T01:22:15.117Z,100107.27
2022-11-19T01:27:20.701Z,100108.41
2022-11-19T01:32:26.419Z,100107.65
2022-11-19T01:37:32.384Z,100107.95
2022-11-19T01:42:50.219Z,100108.27
2022-11-19T01:47:58.656Z,100107.41
2022-11-19T01:53:05.662Z,100111.45
2022-11-19T01:58:15.259Z,100109.11
2022-11-19T02:03:21.123Z,100105.71
2022-11-19T02:08:40.434Z,100109.44
2022-11-19T02:13:54.684Z,100112.04
2022-11-19T02:19:12.089Z,100113.86
2022-11-19T02:24:38.903Z,100112.98
2022-11-19T02:30:03.633Z,100113.98
2022-11-19T02:35:16.413Z,100110.88
2022-11-19T02:40:27.282Z,100107.88
2022-11-19T02:45:37.623Z,100105.18
2022-11-19T02:50:46.789Z,100111.33
2022-11-19T02:56:11.317Z,100111.67
2022-11-19T03:01:40.359Z,100111.24
2022-11-19T03:06:46.601Z,100119.80
2022-11-19T03:11:59.497Z,100127.89
2022-11-19T03:17:10.635Z,100131.73
2022-11-19T03:22:21.960Z,100136.27
2022-11-19T03:27:32.598Z,100138.86
2022-11-19T03:32:39.496Z,100144.14
2022-11-19T03:37:50.689Z,100147.64
2022-11-19T03:42:59.576Z,100155.96
2022-11-19T03:48:07.249Z,100153.64
2022-11-19T03:53:13.186Z,100157.90
2022-11-19T03:58:19.051Z,100159.20
2022-11-19T04:03:24.868Z,100166.15
2022-11-19T04:08:30.674Z,100171.60
2022-11-19T04:13:37.354Z,100173.70
2022-11-19T04:18:43.068Z,100175.48
2022-11-19T04:23:48.997Z,100179.63
2022-11-19T04:28:54.821Z,100187.02
2022-11-19T04:34:00.596Z,100187.80
2022-11-19T04:39:06.704Z,100187.45
2022-11-19T04:44:12.395Z,100195.76
2022-11-19T04:49:18.553Z,100200.48
2022-11-19T04:54:24.455Z,100201.83
2022-11-19T04:59:30.277Z,100202.36
2022-11-19T05:04:35.872Z,100206.71
2022-11-19T05:09:41.605Z,100203.57
2022-11-19T05:14:47.393Z,100203.38
2022-11-19T05:19:53.207Z,100197.87
2022-11-19T05:24:58.800Z,100198.06
2022-11-19T05:30:05.930Z,100202.83
2022-11-19T05:35:12.235Z,100200.73
2022-11-19T05:40:18.505Z,100204.41
2022-11-19T05:45:24.262Z,100214.77
2022-11-19T05:50:29.850Z,100217.95
2022-11-19T05:55:36.472Z,100222.61
2022-11-19T06:00:42.677Z,100225.23
2022-11-19T06:05:48.340Z,100236.19
2022-11-19T06:10:54.319Z,100244.77
2022-11-19T06:16:00.063Z,100249.02
2022-11-19T06:21:10.889Z,100260.63
2022-11-19T06:26:26.278Z,100264.25
2022-11-19T06:31:31.961Z,100272.54
2022-11-19T06:36:42.714Z,100282.62
2022-11-19T06:41:51.139Z,100290.81
2022-11-19T06:46:56.721Z,100297.80
2022-11-19T06:52:02.623Z,100305.92
2022-11-19T06:57:08.276Z,100309.46
2022-11-19T07:02:16.838Z,100318.71
2022-11-19T07:07:25.104Z,100319.77
2022-11-19T07:12:30.895Z,100317.86
2022-11-19T07:17:37.947Z,100319.48
2022-11-19T07:22:43.838Z,100319.16
2022-11-19T07:27:49.572Z,100325.86
2022-11-19T07:32:56.037Z,100333.89
2022-11-19T07:38:01.683Z,100335.05
2022-11-19T07:43:08.507Z,100333.25
2022-11-19T07:48:14.602Z,100337.50
2022-11-19T07:53:20.348Z,100335.71
2022-11-19T07:58:25.949Z,100336.11
2022-11-19T08:03:31.686Z,100334.92
2022-11-19T08:08:37.468Z,100339.23
2022-11-19T08:13:43.839Z,100341.97
2022-11-19T08:18:49.605Z,100337.32
2022-11-19T08:23:56.724Z,100339.88
2022-11-19T08:29:02.850Z,100343.84
2022-11-19T08:34:08.779Z,100340.71
2022-11-19T08:39:14.613Z,100352.09
2022-11-19T08:44:20.903Z,100355.13
2022-11-19T08:49:26.823Z,100356.70
2022-11-19T08:54:32.678Z,100360.21
2022-11-19T08:59:38.305Z,100362.67
2022-11-19T09:04:44.122Z,100364.98
2022-11-19T09:09:49.785Z,100368.41
2022-11-19T09:14:55.482Z,100364.36
2022-11-19T09:20:01.206Z,100369.15
2022-11-19T09:25:09.078Z,100372.08
2022-11-19T09:30:15.829Z,100379.07
2022-11-19T09:35:21.733Z,100375.46
2022-11-19T09:40:27.942Z,100375.98
2022-11-19T09:45:47.632Z,100375.39
2022-11-19T09:51:00.188Z,100379.33
2022-11-19T09:56:07.417Z,100377.63
2022-11-19T10:01:15.356Z,100376.09
2022-11-19T10:06:28.808Z,100371.45
2022-11-19T10:11:47.624Z,100373.62
2022-11-19T10:17:01.918Z,100371.65
2022-11-19T10:22:13.482Z,100371.58
2022-11-19T10:27:29.644Z,100368.00
2022-11-19T10:32:41.283Z,100362.70
2022-11-19T10:37:56.299Z,100365.27
2022-11-19T10:43:20.701Z,100367.39
2022-11-19T10:48:40.891Z,100369.23
2022-11-19T10:53:48.089Z,100375.42
2022-11-19T10:58:58.069Z,100377.39
2022-11-19T11:04:14.138Z,100382.66
2022-11-19T11:09:35.084Z,100384.80
2022-11-19T11:14:52.689Z,100390.90
2022-11-19T11:20:02.211Z,100388.26
2022-11-19T11:25:19.620Z,100390.52
2022-11-19T11:30:25.534Z,100391.23
2022-11-19T11:35:34.323Z,100399.06
2022-11-19T11:40:40.164Z,100401.14
2022-11-19T11:45:45.837Z,100407.06
2022-11-19T11:50:51.861Z,100415.48
2022-11-19T11:56:00.633Z,100410.25
2022-11-19T12:01:19.982Z,100406.54
2022-11-19T12:06:31.537Z,100407.61
2022-11-19T12:11:54.712Z,100415.41
2022-11-19T12:17:17.694Z,100417.42
2022-11-19T12:22:36.422Z,100419.73
2022-11-19T12:27:53.330Z,100416.62
2022-11-19T12:33:29.215Z,100419.04
2022-11-19T12:38:45.556Z,100422.45
2022-11-19T12:44:02.166Z,100423.64
2022-11-19T12:49:28.854Z,100436.11
2022-11-19T12:54:48.304Z,100444.10
2022-11-19T13:00:09.285Z,100447.25
2022-11-19T13:05:19.848Z,100442.30
2022-11-19T13:10:30.742Z,100442.76
2022-11-19T13:15:41.582Z,100438.65
2022-11-19T13:20:53.796Z,100436.93
2022-11-19T13:26:04.980Z,100443.73
2022-11-19T13:31:18.102Z,100446.92
2022-11-19T13:36:29.861Z,100451.66
2022-11-19T13:42:00.539Z,100454.68
2022-11-19T13:47:13.002Z,100461.23
2022-11-19T13:52:26.324Z,100468.26
2022-11-19T13:57:34.921Z,100471.48
2022-11-19T14:03:17.396Z,100481.60
2022-11-19T14:08:49.703Z,100483.64
2022-11-19T14:14:42.903Z,100498.46
2022-11-19T14:20:12.735Z,100503.73
2022-11-19T14:26:01.810Z,100507.69
2022-11-19T14:31:08.232Z,100511.31
2022-11-19T14:36:17.847Z,100507.89
2022-11-19T14:41:32.479Z,100511.01
2022-11-19T14:46:40.644Z,100505.91
2022-11-19T14:51:54.426Z,100497.23
2022-11-19T14:57:07.708Z,100495.48
2022-11-19T15:02:23.260Z,100503.58
2022-11-19T15:07:40.828Z,100501.77
2022-11-19T15:13:02.011Z,100497.94
2022-11-19T15:18:50.687Z,100491.58
2022-11-19T15:24:05.797Z,100492.21
2022-11-19T15:29:18.777Z,100493.94
2022-11-19T15:34:49.325Z,100492.89
2022-11-19T15:40:03.060Z,100488.91
2022-11-19T15:45:16.404Z,100494.44
2022-11-19T15:50:24.706Z,100504.92
2022-11-19T15:55:32.187Z,100505.08
2022-11-19T16:00:45.962Z,100504.05
2022-11-19T16:06:02.522Z,100511.09
2022-11-19T16:11:27.620Z,100515.03
2022-11-19T16:16:51.708Z,100521.77
2022-11-19T16:22:01.467Z,100522.61
2022-11-19T16:27:13.310Z,100519.21
2022-11-19T16:32:21.933Z,100521.66
2022-11-19T16:37:28.025Z,100524.70
2022-11-19T16:42:34.140Z,100535.30
2022-11-19T16:47:50.281Z,100535.25
2022-11-19T16:52:57.413Z,100533.75
2022-11-19T16:58:13.929Z,100538.64
2022-11-19T17:03:31.897Z,100544.51
2022-11-19T17:08:38.877Z,100546.51
2022-11-19T17:13:44.562Z,100538.94
2022-11-19T17:18:51.644Z,100537.58
2022-11-19T17:23:58.436Z,100535.84
2022-11-19T17:29:10.872Z,100539.90
2022-11-19T17:34:27.924Z,100538.35
2022-11-19T17:39:33.893Z,100554.77
2022-11-19T17:44:40.621Z,100561.50
2022-11-19T17:49:47.400Z,100554.95
2022-11-19T17:54:55.138Z,100552.05
2022-11-19T18:00:00.978Z,100551.38
2022-11-19T18:05:16.741Z,100556.27
2022-11-19T18:10:22.732Z,100560.23
2022-11-19T18:15:28.530Z,100565.20
2022-11-19T18:20:34.464Z,100568.66
2022-11-19T18:25:40.765Z,100568.91
2022-11-19T18:30:46.515Z,100571.94
2022-11-19T18:35:52.054Z,100575.37
2022-11-19T18:40:57.696Z,100579.50
2022-11-19T18:46:03.742Z,100584.77
2022-11-19T18:51:11.786Z,100588.14
2022-11-19T18:56:19.185Z,100592.57
2022-11-19T19:01:24.931Z,100590.55
2022-11-19T19:06:30.850Z,100593.89
2022-11-19T19:11:55.624Z,100588.08
2022-11-19T19:17:02.381Z,100589.62
2022-11-19T19:22:08.772Z,100590.84
2022-11-19T19:27:14.981Z,100592.08
2022-11-19T19:32:20.664Z,100599.70
2022-11-19T19:37:26.460Z,100598.34
2022-11-19T19:42:35.986Z,100602.09
2022-11-19T19:47:44.532Z,100606.86
2022-11-19T19:52:50.448Z,100617.19
2022-11-19T19:57:56.366Z,100615.45
2022-11-19T20:03:02.533Z,100610.39
2022-11-19T20:08:08.385Z,100610.96
2022-11-19T20:13:30.637Z,100606.68
2022-11-19T20:18:37.849Z,100606.45
2022-11-19T20:23:44.151Z,100607.34
2022-11-19T20:28:53.687Z,100604.98
2022-11-19T20:34:01.646Z,100599.22
2022-11-19T20:39:07.698Z,100595.34
2022-11-19T20:44:21.499Z,100596.39
2022-11-19T20:49:29.980Z,100599.41
2022-11-19T20:54:36.505Z,100603.64
2022-11-19T20:59:42.467Z,100604.92
2022-11-19T21:04:48.361Z,100602.24
2022-11-19T21:09:54.216Z,100600.80
2022-11-19T21:15:00.099Z,100598.98
2022-11-19T21:20:07.183Z,100591.65
2022-11-19T21:25:13.540Z,100588.17
2022-11-19T21:30:19.683Z,100588.13
2022-11-19T21:35:26.023Z,100593.48
2022-11-19T21:40:31.913Z,100594.87
2022-11-19T21:45:41.429Z,100600.02
2022-11-19T21:50:47.802Z,100605.69
2022-11-19T21:55:56.912Z,100612.44
2022-11-19T22:01:04.422Z,100608.63
2022-11-19T22:06:11.935Z,100600.80
2022-11-19T22:11:30.196Z,100601.08
2022-11-19T22:16:38.488Z,100601.84
2022-11-19T22:21:44.429Z,100601.33
2022-11-19T22:26:50.333Z,100597.44
2022-11-19T22:31:56.034Z,100593.42
2022-11-19T22:37:02.251Z,100595.86
2022-11-19T22:42:07.995Z,100592.65
2022-11-19T22:47:14.607Z,100595.21
2022-11-19T22:52:20.493Z,100594.44
2022-11-19T22:57:27.862Z,100593.63
2022-11-19T23:02:34.381Z,100594.73
2022-11-19T23:07:40.686Z,100588.35
2022-11-19T23:13:04.965Z,100591.23
2022-11-19T23:18:10.807Z,100589.77
2022-11-19T23:23:16.495Z,100583.86
2022-11-19T23:28:22.315Z,100573.44
2022-11-19T23:33:28.140Z,100574.26
2022-11-19T23:38:34.344Z,100568.00
2022-11-19T23:43:41.128Z,100564.34
2022-11-19T23:48:48.589Z,100561.06
2022-11-19T23:53:54.840Z,100566.38
2022-11-19T23:59:02.259Z,100567.89
